createdAt,value
2022-09-29T00:03:58.988Z,70.90
2022-09-29T00:08:02.102Z,70.80
2022-09-29T00:12:05.001Z,70.70
2022-09-29T00:16:08.345Z,70.60
2022-09-29T00:20:11.370Z,70.70
2022-09-29T00:24:14.173Z,70.70
2022-09-29T00:28:20.107Z,70.80
2022-09-29T00:32:22.849Z,71.00
2022-09-29T00:36:30.169Z,71.10
2022-09-29T00:40:35.193Z,71.50
2022-09-29T00:45:00.533Z,71.60
2022-09-29T00:49:25.272Z,71.40
2022-09-29T00:53:28.311Z,71.70
2022-09-29T00:58:05.413Z,71.50
2022-09-29T01:02:09.158Z,71.50
2022-09-29T01:06:19.746Z,71.40
2022-09-29T01:10:23.538Z,71.10
2022-09-29T01:14:29.358Z,70.90
2022-09-29T01:18:32.738Z,70.50
2022-09-29T01:23:13.095Z,70.40
2022-09-29T01:27:21.533Z,70.20
2022-09-29T01:31:30.945Z,70.30
2022-09-29T01:35:59.196Z,70.10
2022-09-29T01:40:18.929Z,69.90
2022-09-29T01:44:44.794Z,69.80
2022-09-29T01:48:52.826Z,69.70
2022-09-29T01:53:01.813Z,69.80
2022-09-29T01:57:19.281Z,69.80
2022-09-29T02:01:27.135Z,70.10
2022-09-29T02:05:47.515Z,70.30
2022-09-29T02:09:59.472Z,70.40
2022-09-29T02:14:19.702Z,70.40
2022-09-29T02:18:25.951Z,70.40
2022-09-29T02:22:29.062Z,70.50
2022-09-29T02:26:38.346Z,70.50
2022-09-29T02:30:41.241Z,70.40
2022-09-29T02:34:47.268Z,70.40
2022-09-29T02:39:22.070Z,70.50
2022-09-29T02:43:25.988Z,70.30
2022-09-29T02:47:37.392Z,70.30
2022-09-29T02:51:56.823Z,70.30
2022-09-29T02:56:39.728Z,70.20
2022-09-29T03:00:44.711Z,70.20
2022-09-29T03:04:51.025Z,70.50
2022-09-29T03:08:54.486Z,70.50
2022-09-29T03:12:57.665Z,70.70
2022-09-29T03:17:01.112Z,70.90
2022-09-29T03:21:04.055Z,71.10
2022-09-29T03:25:08.419Z,72.20
2022-09-29T03:29:11.130Z,72.60
2022-09-29T03:33:14.330Z,73.10
2022-09-29T03:37:17.086Z,73.20
2022-09-29T03:41:19.994Z,73.30
2022-09-29T03:45:22.774Z,73.40
2022-09-29T03:49:25.617Z,73.40
2022-09-29T03:53:28.387Z,73.40
2022-09-29T03:57:31.284Z,73.50
2022-09-29T04:01:34.430Z,73.40
2022-09-29T04:05:38.531Z,73.50
2022-09-29T04:09:41.908Z,73.40
2022-09-29T04:13:45.770Z,73.30
2022-09-29T04:17:55.769Z,72.90
2022-09-29T04:21:59.712Z,72.20
2022-09-29T04:26:07.947Z,72.20
2022-09-29T04:30:11.611Z,72.20
2022-09-29T04:34:14.514Z,71.90
2022-09-29T04:38:18.154Z,71.60
2022-09-29T04:42:21.450Z,71.50
2022-09-29T04:46:25.870Z,71.50
2022-09-29T04:50:30.312Z,71.60
2022-09-29T04:54:38.138Z,71.60
2022-09-29T04:58:41.954Z,71.80
2022-09-29T05:02:49.641Z,72.30
2022-09-29T05:06:56.731Z,72.70
2022-09-29T05:11:05.341Z,72.70
2022-09-29T05:15:08.782Z,73.30
2022-09-29T05:19:11.801Z,73.60
2022-09-29T05:23:14.771Z,73.50
2022-09-29T05:27:17.964Z,73.50
2022-09-29T05:31:25.199Z,73.30
2022-09-29T05:35:29.232Z,73.30
2022-09-29T05:39:35.081Z,73.20
2022-09-29T05:43:38.594Z,73.20
2022-09-29T05:52:04.522Z,73.20
2022-09-29T05:56:15.145Z,72.90
2022-09-29T06:00:20.289Z,72.90
2022-09-29T06:04:23.440Z,72.90
2022-09-29T06:12:43.621Z,73.10
2022-09-29T06:16:47.394Z,73.10
2022-09-29T06:25:11.276Z,74.70
2022-09-29T06:29:17.888Z,73.90
2022-09-29T06:33:21.256Z,74.70
2022-09-29T06:37:41.689Z,75.10
2022-09-29T06:41:49.972Z,75.20
2022-09-29T06:50:15.157Z,75.20
2022-09-29T06:54:27.527Z,75.40
2022-09-29T06:58:30.957Z,75.30
2022-09-29T07:02:34.719Z,74.90
2022-09-29T07:06:40.022Z,74.90
2022-09-29T07:10:44.268Z,75.00
2022-09-29T07:14:48.701Z,75.10
2022-09-29T07:18:53.152Z,75.30
2022-09-29T07:22:57.020Z,75.20
2022-09-29T07:27:01.418Z,75.30
2022-09-29T07:31:14.273Z,75.30
2022-09-29T07:35:20.551Z,75.60
2022-09-29T07:39:23.599Z,75.40
2022-09-29T07:43:28.130Z,75.10
2022-09-29T07:47:31.889Z,75.00
2022-09-29T07:55:52.453Z,74.80
2022-09-29T08:08:36.133Z,74.80
2022-09-29T08:12:44.077Z,74.90
2022-09-29T08:16:48.236Z,74.90
2022-09-29T08:20:54.289Z,74.90
2022-09-29T08:25:00.017Z,74.50
2022-09-29T08:29:08.589Z,73.50
2022-09-29T08:33:16.044Z,72.40
2022-09-29T08:37:20.289Z,71.90
2022-09-29T08:41:34.134Z,72.10
2022-09-29T08:45:57.191Z,71.50
2022-09-29T08:50:16.822Z,71.00
2022-09-29T08:54:39.550Z,71.40
2022-09-29T08:58:43.450Z,71.80
2022-09-29T09:03:04.693Z,72.00
2022-09-29T09:07:17.604Z,72.00
2022-09-29T09:11:39.115Z,72.00
2022-09-29T09:15:52.404Z,71.60
2022-09-29T09:20:12.576Z,71.50
2022-09-29T09:24:28.096Z,71.20
2022-09-29T09:28:43.992Z,70.80
2022-09-29T09:32:54.324Z,70.00
2022-09-29T09:37:07.747Z,69.50
2022-09-29T09:41:19.540Z,69.40
2022-09-29T09:45:55.077Z,68.90
2022-09-29T09:50:00.231Z,68.30
2022-09-29T09:54:10.678Z,67.90
2022-09-29T09:58:36.705Z,68.30
2022-09-29T10:02:56.388Z,67.00
2022-09-29T10:07:01.062Z,66.70
2022-09-29T10:11:11.163Z,65.70
2022-09-29T10:15:29.815Z,63.80
2022-09-29T10:19:58.053Z,63.00
2022-09-29T10:24:06.232Z,62.90
2022-09-29T10:28:15.828Z,62.40
2022-09-29T10:32:37.424Z,61.80
2022-09-29T10:36:54.013Z,62.30
2022-09-29T10:41:05.591Z,62.10
2022-09-29T10:45:48.216Z,61.20
2022-09-29T10:50:16.976Z,61.20
2022-09-29T10:54:27.464Z,60.40
2022-09-29T11:03:20.730Z,60.30
2022-09-29T11:07:25.089Z,61.40
2022-09-29T11:11:29.428Z,61.40
2022-09-29T11:15:44.961Z,58.60
2022-09-29T11:19:49.265Z,60.70
2022-09-29T11:24:18.412Z,62.10
2022-09-29T11:28:39.770Z,63.90
2022-09-29T11:33:10.250Z,65.10
2022-09-29T11:37:28.760Z,63.90
2022-09-29T11:41:39.182Z,64.20
2022-09-29T11:45:49.973Z,64.70
2022-09-29T11:50:11.688Z,63.50
2022-09-29T11:54:59.680Z,62.50
2022-09-29T11:59:09.986Z,62.70
2022-09-29T12:03:29.369Z,62.20
2022-09-29T12:07:45.271Z,61.00
2022-09-29T12:12:22.557Z,61.20
2022-09-29T12:16:33.470Z,60.20
2022-09-29T12:20:44.660Z,59.80
2022-09-29T12:24:52.135Z,57.50
2022-09-29T12:29:03.110Z,56.40
2022-09-29T12:33:33.451Z,54.30
2022-09-29T12:38:14.941Z,54.10
2022-09-29T12:42:39.585Z,53.30
2022-09-29T12:46:52.496Z,52.70
2022-09-29T12:51:03.338Z,52.60
2022-09-29T12:55:11.216Z,53.20
2022-09-29T12:59:17.505Z,54.20
2022-09-29T13:03:38.392Z,53.40
2022-09-29T13:07:47.430Z,53.40
2022-09-29T13:12:00.583Z,52.60
2022-09-29T13:16:28.423Z,53.70
2022-09-29T13:20:59.348Z,53.80
2022-09-29T13:29:50.640Z,53.90
2022-09-29T13:34:01.925Z,54.40
2022-09-29T13:38:10.658Z,54.10
2022-09-29T13:42:34.881Z,54.20
2022-09-29T13:46:41.822Z,54.00
2022-09-29T13:50:53.710Z,53.20
2022-09-29T13:55:39.838Z,53.70
2022-09-29T13:59:55.662Z,54.10
2022-09-29T14:03:59.850Z,54.50
2022-09-29T15:39:34.919Z,56.50
2022-09-29T16:37:54.356Z,62.50
2022-09-29T16:42:07.275Z,63.80
2022-09-29T16:59:45.467Z,65.30
2022-09-29T17:30:17.775Z,70.90
2022-09-29T17:34:31.453Z,70.90
2022-09-29T17:42:56.724Z,70.90
2022-09-29T17:47:17.540Z,71.10
2022-09-29T17:51:26.873Z,71.70
2022-09-29T17:55:31.561Z,72.10
2022-09-29T17:59:40.530Z,72.50
2022-09-29T18:03:44.860Z,73.00
2022-09-29T18:07:48.772Z,72.70
2022-09-29T18:11:52.914Z,73.10
2022-09-29T18:15:57.029Z,73.40
2022-09-29T18:20:00.212Z,73.70
2022-09-29T18:24:03.129Z,74.40
2022-09-29T18:28:06.019Z,74.80
2022-09-29T18:32:14.361Z,75.00
2022-09-29T18:36:17.385Z,75.10
2022-09-29T18:40:22.357Z,75.20
2022-09-29T18:44:37.212Z,75.80
2022-09-29T18:48:42.914Z,75.90
2022-09-29T18:52:50.171Z,75.70
2022-09-29T18:56:54.783Z,75.70
2022-09-29T19:00:59.133Z,75.20
2022-09-29T19:05:02.175Z,75.20
2022-09-29T19:09:05.984Z,75.30
2022-09-29T19:13:15.481Z,75.70
2022-09-29T19:17:25.078Z,75.90
2022-09-29T19:21:28.107Z,75.80
2022-09-29T19:25:34.833Z,75.80
2022-09-29T19:29:38.717Z,76.00
2022-09-29T19:33:44.410Z,75.80
2022-09-29T19:37:47.964Z,76.00
2022-09-29T19:41:51.283Z,76.20
2022-09-29T19:45:54.147Z,76.30
2022-09-29T19:50:19.688Z,76.30
2022-09-29T19:54:24.926Z,76.20
2022-09-29T19:58:30.637Z,76.70
2022-09-29T20:02:37.520Z,76.80
2022-09-29T20:06:41.629Z,77.10
2022-09-29T20:10:48.377Z,77.40
2022-09-29T20:14:53.764Z,77.80
2022-09-29T20:19:04.713Z,78.00
2022-09-29T20:23:10.239Z,77.90
2022-09-29T20:27:14.951Z,78.00
2022-09-29T20:31:18.345Z,78.00
2022-09-29T20:35:21.069Z,78.20
2022-09-29T20:39:27.084Z,78.30
2022-09-29T20:43:30.268Z,78.50
2022-09-29T20:47:33.130Z,78.60
2022-09-29T20:51:38.006Z,78.60
2022-09-29T20:55:41.081Z,78.50
2022-09-29T20:59:43.961Z,78.50
2022-09-29T21:03:51.363Z,78.50
2022-09-29T21:07:55.492Z,78.60
2022-09-29T21:11:58.279Z,78.50
2022-09-29T21:16:02.152Z,78.70
2022-09-29T21:20:05.446Z,79.10
2022-09-29T21:24:09.476Z,79.10
2022-09-29T21:28:12.361Z,79.00
2022-09-29T21:32:15.253Z,79.00
2022-09-29T21:36:18.042Z,78.90
2022-09-29T21:40:20.713Z,78.80
2022-09-29T21:44:24.673Z,78.50
2022-09-29T21:48:27.898Z,78.40
2022-09-29T21:52:31.787Z,78.30
2022-09-29T21:56:40.667Z,78.30
2022-09-29T22:00:43.309Z,78.60
2022-09-29T22:04:46.251Z,78.50
2022-09-29T22:08:50.441Z,78.60
2022-09-29T22:12:53.304Z,78.70
2022-09-29T22:16:56.005Z,78.60
2022-09-29T22:21:00.178Z,78.70
2022-09-29T22:25:04.746Z,78.70
2022-09-29T22:29:08.054Z,78.80
2022-09-29T22:33:14.962Z,78.90
2022-09-29T22:37:22.746Z,79.20
2022-09-29T22:41:26.188Z,79.40
2022-09-29T22:45:33.142Z,79.60
2022-09-29T22:49:38.937Z,79.60
2022-09-29T22:53:42.627Z,79.70
2022-09-29T22:57:45.405Z,79.80
2022-09-29T23:01:49.347Z,79.70
2022-09-29T23:05:59.728Z,79.70
2022-09-29T23:10:02.834Z,79.80
2022-09-29T23:14:07.147Z,79.70
2022-09-29T23:18:09.793Z,79.70
2022-09-29T23:22:12.443Z,79.80
2022-09-29T23:26:16.374Z,79.90
2022-09-29T23:30:19.242Z,79.90
2022-09-29T23:34:23.726Z,80.10
2022-09-29T23:38:44.987Z,80.20
2022-09-29T23:42:48.109Z,80.40
2022-09-29T23:46:52.106Z,80.60
2022-09-29T23:50:55.428Z,80.80
2022-09-29T23:54:58.109Z,80.90
2022-09-29T23:59:00.765Z,80.90
